greek

WEATHER INFORMATION

english


LGTT 181700Z 25005KT 9999 FEW030 27/17 Q1013 RMK SCT080
TAF LGTT 181000Z 1812/1821 05012KT 9999 FEW025 SCT050 TEMPO 1812/1814 03010G20KT PROB30 TEMPO 1812/1815 5000 TSRA FEW016CB BKN020 BKN050 BECMG 1815/1817 VRB05KT

 Print LGTT local weather
 EMY AVIATION
 EMY LGTT
 Forecast LGTT
 EMY LGMG
 EMY LGEL
 EMY LGTG
 EMY LGAV
 EMY LGAT
 Latest METAR Reports (OGIMET)
 Latest TAF Reports (OGIMET)
 Greece Forecast
 www.windyty.com
 www.meteo.gr
 SAT 24h
 UK Met Office
 www.kifissiameteo.gr
 forecast.uoa.gr
 www.ntua.gr/weather/
 www.autorouter.eu/gramet
 http://www.jetplan.com/jeppesen/

Call 210-3533689 to get aviation-weather info for Greece.